createdAt,value
2019-05-19T00:00:03.566Z,99.90
2019-05-19T00:02:32.556Z,99.90
2019-05-19T00:05:01.385Z,99.90
2019-05-19T00:07:30.237Z,99.90
2019-05-19T00:09:59.166Z,99.90
2019-05-19T00:12:28.010Z,99.90
2019-05-19T00:14:56.868Z,99.90
2019-05-19T00:17:25.703Z,99.90
2019-05-19T00:19:54.572Z,99.90
2019-05-19T00:22:23.407Z,99.90
2019-05-19T00:24:52.229Z,99.90
2019-05-19T00:27:21.169Z,99.90
2019-05-19T00:29:50.017Z,99.90
2019-05-19T00:32:18.898Z,99.90
2019-05-19T00:34:47.961Z,99.90
2019-05-19T00:37:17.260Z,99.90
2019-05-19T00:39:46.286Z,99.90
2019-05-19T00:42:15.230Z,99.90
2019-05-19T00:44:44.334Z,99.90
2019-05-19T00:47:13.446Z,99.90
2019-05-19T00:49:42.714Z,99.90
2019-05-19T00:52:11.881Z,99.90
2019-05-19T00:54:43.862Z,99.90
2019-05-19T00:57:13.060Z,99.90
2019-05-19T00:59:42.836Z,99.90
2019-05-19T01:02:12.030Z,99.90
2019-05-19T01:04:40.974Z,99.90
2019-05-19T01:07:10.037Z,99.90
2019-05-19T01:09:39.091Z,99.90
2019-05-19T01:12:08.252Z,99.90
2019-05-19T01:14:37.136Z,99.90
2019-05-19T01:17:06.015Z,99.90
2019-05-19T01:19:56.251Z,99.90
2019-05-19T01:22:24.715Z,99.90
2019-05-19T01:24:53.620Z,99.90
2019-05-19T01:27:22.428Z,99.90
2019-05-19T01:29:51.231Z,99.90
2019-05-19T01:32:20.088Z,99.90
2019-05-19T01:34:48.965Z,99.90
2019-05-19T01:37:17.837Z,99.90
2019-05-19T01:39:46.781Z,99.90
2019-05-19T01:42:15.793Z,99.90
2019-05-19T01:44:44.765Z,99.90
2019-05-19T01:47:13.583Z,99.90
2019-05-19T01:49:42.430Z,99.90
2019-05-19T01:52:11.354Z,99.90
2019-05-19T01:54:40.250Z,99.90
2019-05-19T01:57:09.186Z,99.90
2019-05-19T01:59:38.122Z,99.90
2019-05-19T02:02:07.108Z,99.90
2019-05-19T02:04:36.032Z,99.90
2019-05-19T02:07:05.189Z,99.90
2019-05-19T02:09:34.217Z,99.90
2019-05-19T02:12:03.138Z,99.90
2019-05-19T02:14:34.577Z,99.90
2019-05-19T02:17:03.396Z,99.90
2019-05-19T02:19:32.240Z,99.90
2019-05-19T02:22:01.110Z,99.90
2019-05-19T02:24:29.994Z,99.90
2019-05-19T02:26:58.932Z,99.90
2019-05-19T02:29:27.838Z,99.90
2019-05-19T02:31:56.758Z,99.90
2019-05-19T02:34:25.594Z,99.90
2019-05-19T02:36:54.411Z,99.90
2019-05-19T02:39:23.345Z,99.90
2019-05-19T02:41:53.046Z,99.90
2019-05-19T02:44:23.952Z,99.90
2019-05-19T02:46:54.583Z,99.90
2019-05-19T02:49:24.396Z,99.90
2019-05-19T02:51:54.457Z,99.90
2019-05-19T02:54:23.754Z,99.90
2019-05-19T02:56:53.238Z,99.90
2019-05-19T02:59:22.867Z,99.90
2019-05-19T03:02:03.105Z,99.90
2019-05-19T03:04:32.553Z,99.90
2019-05-19T03:07:01.478Z,99.90
2019-05-19T03:09:30.372Z,99.90
2019-05-19T03:11:59.248Z,99.90
2019-05-19T03:14:28.132Z,99.90
2019-05-19T03:16:56.957Z,99.90
2019-05-19T03:19:25.918Z,99.90
2019-05-19T03:21:54.727Z,99.90
2019-05-19T03:24:23.553Z,99.90
2019-05-19T03:26:52.452Z,99.90
2019-05-19T03:29:25.625Z,99.90
2019-05-19T03:32:00.929Z,99.90
2019-05-19T03:34:29.894Z,99.90
2019-05-19T03:36:58.780Z,99.90
2019-05-19T03:39:27.641Z,99.90
2019-05-19T03:41:56.549Z,99.90
2019-05-19T03:44:25.401Z,99.90
2019-05-19T03:46:54.401Z,99.90
2019-05-19T03:49:23.293Z,99.90
2019-05-19T03:51:52.166Z,99.90
2019-05-19T03:54:21.042Z,99.90
2019-05-19T03:56:49.955Z,99.90
2019-05-19T03:59:18.813Z,99.90
2019-05-19T04:01:47.662Z,99.90
2019-05-19T04:04:16.483Z,99.90
2019-05-19T04:06:45.489Z,99.90
2019-05-19T04:09:17.272Z,99.90
2019-05-19T04:11:44.934Z,99.90
2019-05-19T04:14:13.930Z,99.90
2019-05-19T04:16:42.842Z,99.90
2019-05-19T04:19:11.798Z,99.90
2019-05-19T04:21:48.731Z,99.90
2019-05-19T04:24:11.185Z,99.90
2019-05-19T04:26:40.034Z,99.90
2019-05-19T04:29:08.931Z,99.90
2019-05-19T04:31:37.753Z,99.90
2019-05-19T04:34:06.587Z,99.90
2019-05-19T04:36:35.504Z,99.90
2019-05-19T04:39:06.621Z,99.90
2019-05-19T04:41:35.436Z,99.90
2019-05-19T04:44:04.570Z,99.90
2019-05-19T04:46:33.565Z,99.90
2019-05-19T04:49:02.411Z,99.90
2019-05-19T04:51:31.365Z,99.90
2019-05-19T04:54:00.297Z,99.90
2019-05-19T04:56:29.108Z,99.90
2019-05-19T04:58:58.012Z,99.90
2019-05-19T05:01:26.869Z,99.90
2019-05-19T05:03:55.730Z,99.90
2019-05-19T05:06:24.675Z,99.90
2019-05-19T05:08:53.555Z,99.90
2019-05-19T05:11:22.409Z,99.90
2019-05-19T05:13:51.367Z,99.90
2019-05-19T05:16:20.309Z,99.90
2019-05-19T05:18:49.216Z,99.90
2019-05-19T05:21:18.068Z,99.90
2019-05-19T05:23:46.989Z,99.90
2019-05-19T05:26:15.817Z,99.90
2019-05-19T05:28:44.744Z,99.90
2019-05-19T05:31:15.509Z,99.90
2019-05-19T05:33:44.259Z,99.90
2019-05-19T05:36:13.149Z,99.90
2019-05-19T05:38:41.978Z,99.90
2019-05-19T05:41:10.903Z,99.90
2019-05-19T05:43:39.819Z,99.90
2019-05-19T05:46:08.842Z,99.90
2019-05-19T05:48:40.754Z,99.90
2019-05-19T05:51:09.982Z,99.90
2019-05-19T05:53:38.796Z,99.90
2019-05-19T05:56:07.747Z,99.90
2019-05-19T05:58:36.625Z,99.90
2019-05-19T06:01:05.646Z,99.90
2019-05-19T06:03:34.505Z,99.90
2019-05-19T06:06:03.426Z,99.90
2019-05-19T06:08:32.313Z,99.90
2019-05-19T06:11:01.213Z,99.90
2019-05-19T06:13:30.126Z,99.90
2019-05-19T06:15:59.068Z,99.90
2019-05-19T06:18:27.962Z,99.90
2019-05-19T06:20:56.847Z,99.90
2019-05-19T06:23:25.760Z,99.90
2019-05-19T06:25:54.692Z,99.90
2019-05-19T06:28:25.369Z,99.90
2019-05-19T06:30:54.305Z,99.90
2019-05-19T06:33:23.161Z,99.90
2019-05-19T06:35:52.175Z,99.90
2019-05-19T06:38:21.108Z,99.90
2019-05-19T06:40:49.967Z,99.90
2019-05-19T06:43:18.960Z,99.90
2019-05-19T06:45:47.868Z,99.90
2019-05-19T06:48:16.803Z,99.90
2019-05-19T06:50:45.852Z,99.90
2019-05-19T06:53:14.924Z,99.90
2019-05-19T06:55:44.235Z,99.90
2019-05-19T06:58:13.209Z,99.90
2019-05-19T07:00:42.445Z,99.90
2019-05-19T07:03:11.617Z,99.90
2019-05-19T07:05:40.537Z,99.90
2019-05-19T07:08:09.458Z,99.90
2019-05-19T07:10:38.489Z,99.90
2019-05-19T07:13:07.383Z,99.90
2019-05-19T07:15:36.254Z,99.90
2019-05-19T07:18:05.647Z,99.90
2019-05-19T07:20:34.777Z,99.90
2019-05-19T07:23:03.841Z,99.90
2019-05-19T07:25:32.803Z,99.90
2019-05-19T07:28:04.811Z,99.90
2019-05-19T07:30:34.112Z,99.90
2019-05-19T07:33:03.281Z,99.90
2019-05-19T07:35:32.284Z,99.90
2019-05-19T07:38:01.245Z,99.90
2019-05-19T07:40:30.503Z,99.90
2019-05-19T07:42:59.456Z,99.90
2019-05-19T07:45:28.579Z,99.90
2019-05-19T07:47:57.559Z,99.90
2019-05-19T07:50:26.377Z,99.90
2019-05-19T07:52:55.397Z,99.90
2019-05-19T07:55:24.333Z,99.90
2019-05-19T07:57:53.194Z,99.90
2019-05-19T08:00:22.020Z,99.90
2019-05-19T08:02:50.983Z,99.90
2019-05-19T08:05:19.900Z,99.90
2019-05-19T08:07:48.798Z,99.90
2019-05-19T08:10:17.831Z,99.90
2019-05-19T08:12:46.770Z,99.90
2019-05-19T08:15:16.214Z,99.90
2019-05-19T08:17:45.117Z,99.90
2019-05-19T08:20:14.266Z,99.90
2019-05-19T08:22:43.223Z,99.90
2019-05-19T08:25:12.769Z,99.90
2019-05-19T08:27:41.775Z,99.90
2019-05-19T08:30:10.942Z,99.90
2019-05-19T08:32:39.866Z,99.90
2019-05-19T08:35:08.855Z,99.90
2019-05-19T08:37:37.906Z,99.90
2019-05-19T08:40:07.476Z,99.90
2019-05-19T08:42:36.394Z,99.90
2019-05-19T08:45:05.914Z,99.90
2019-05-19T08:47:34.832Z,99.90
2019-05-19T08:50:04.347Z,99.90
2019-05-19T08:52:33.257Z,99.90
2019-05-19T08:55:02.141Z,99.90
2019-05-19T08:57:31.193Z,99.90
2019-05-19T09:00:00.128Z,99.90
2019-05-19T09:02:28.988Z,99.90
2019-05-19T09:04:57.819Z,99.90
2019-05-19T09:07:26.659Z,99.90
2019-05-19T09:09:55.598Z,99.90
2019-05-19T09:12:24.508Z,99.90
2019-05-19T09:14:53.450Z,99.90
2019-05-19T09:17:22.360Z,99.90
2019-05-19T09:19:51.247Z,99.90
2019-05-19T09:22:22.887Z,99.90
2019-05-19T09:24:51.798Z,99.90
2019-05-19T09:27:20.721Z,99.90
2019-05-19T09:29:49.594Z,99.90
2019-05-19T09:32:18.606Z,99.90
2019-05-19T09:34:47.750Z,99.90
2019-05-19T09:37:16.964Z,99.90
2019-05-19T09:39:46.093Z,99.90
2019-05-19T09:42:15.127Z,99.90
2019-05-19T09:44:44.089Z,99.90
2019-05-19T09:47:13.038Z,99.90
2019-05-19T09:49:41.923Z,99.90
2019-05-19T09:52:10.933Z,99.90
2019-05-19T09:54:45.456Z,99.90
2019-05-19T09:57:10.444Z,99.90
2019-05-19T09:59:39.362Z,99.90
2019-05-19T10:02:08.326Z,99.90
2019-05-19T10:04:37.272Z,99.90
2019-05-19T10:07:06.935Z,99.90
2019-05-19T10:09:58.045Z,99.90
2019-05-19T10:12:27.494Z,99.90
2019-05-19T10:14:56.545Z,99.90
2019-05-19T10:17:25.557Z,99.90
2019-05-19T10:19:54.605Z,99.90
2019-05-19T10:22:23.590Z,99.90
2019-05-19T10:25:10.485Z,99.90
2019-05-19T10:27:23.090Z,99.90
2019-05-19T10:29:52.070Z,99.90
2019-05-19T10:32:21.006Z,99.90
2019-05-19T10:34:49.892Z,99.90
2019-05-19T10:37:18.984Z,99.90
2019-05-19T10:39:47.810Z,99.90
2019-05-19T10:42:16.734Z,99.90
2019-05-19T10:44:45.858Z,99.90
2019-05-19T10:47:14.870Z,99.90
2019-05-19T10:49:43.943Z,99.90
2019-05-19T10:52:12.871Z,99.90
2019-05-19T10:54:41.803Z,99.90
2019-05-19T10:57:10.883Z,99.90
2019-05-19T10:59:39.845Z,99.90
2019-05-19T11:02:08.876Z,99.90
2019-05-19T11:04:37.781Z,99.90
2019-05-19T11:07:06.718Z,99.90
2019-05-19T11:09:35.787Z,99.90
2019-05-19T11:12:04.879Z,99.90
2019-05-19T11:14:33.872Z,99.90
2019-05-19T11:17:02.711Z,99.90
2019-05-19T11:19:31.560Z,99.90
2019-05-19T11:22:00.544Z,99.90
2019-05-19T11:24:29.445Z,99.90
2019-05-19T11:26:58.377Z,99.70
2019-05-19T11:29:27.425Z,99.90
2019-05-19T11:31:56.326Z,99.90
2019-05-19T11:34:25.189Z,98.80
2019-05-19T11:36:54.105Z,99.50
2019-05-19T11:39:22.914Z,99.90
2019-05-19T11:41:51.902Z,99.30
2019-05-19T11:44:20.738Z,98.80
2019-05-19T11:46:49.667Z,98.70
2019-05-19T11:49:18.497Z,97.40
2019-05-19T11:51:47.309Z,97.10
2019-05-19T11:54:16.343Z,97.70
2019-05-19T11:56:45.373Z,98.30
2019-05-19T11:59:14.315Z,97.40
2019-05-19T12:01:43.249Z,97.20
2019-05-19T12:04:12.160Z,96.70
2019-05-19T12:06:41.198Z,96.60
2019-05-19T12:09:10.188Z,96.70
2019-05-19T12:11:40.643Z,96.60
2019-05-19T12:14:09.567Z,96.70
2019-05-19T12:16:38.463Z,96.90
2019-05-19T12:19:07.299Z,97.70
2019-05-19T12:21:36.145Z,96.80
2019-05-19T12:24:05.089Z,96.70
2019-05-19T12:26:34.943Z,96.10
2019-05-19T12:29:04.095Z,95.90
2019-05-19T12:31:33.016Z,96.10
2019-05-19T12:34:01.902Z,96.70
2019-05-19T12:36:30.740Z,95.50
2019-05-19T12:38:59.804Z,95.70
2019-05-19T12:41:28.774Z,95.50
2019-05-19T12:43:57.662Z,95.80
2019-05-19T12:46:26.594Z,96.20
2019-05-19T12:48:55.658Z,96.00
2019-05-19T12:51:26.756Z,95.20
2019-05-19T12:53:55.021Z,94.60
2019-05-19T12:56:38.695Z,94.20
2019-05-19T12:58:54.552Z,94.30
2019-05-19T13:01:23.418Z,94.40
2019-05-19T13:03:52.216Z,93.60
2019-05-19T13:06:21.120Z,93.20
2019-05-19T13:08:49.993Z,93.10
2019-05-19T13:11:18.957Z,93.70
2019-05-19T13:13:47.887Z,93.50
2019-05-19T13:16:16.745Z,93.20
2019-05-19T13:18:45.769Z,93.20
2019-05-19T13:21:15.569Z,93.70
2019-05-19T13:23:44.543Z,93.30
2019-05-19T13:26:13.574Z,93.50
2019-05-19T13:28:42.651Z,92.00
2019-05-19T13:31:11.552Z,92.00
2019-05-19T13:33:40.476Z,93.40
2019-05-19T13:36:09.337Z,91.60
2019-05-19T13:38:38.185Z,91.40
2019-05-19T13:41:07.162Z,91.50
2019-05-19T13:43:36.076Z,92.30
2019-05-19T13:46:04.994Z,92.10
2019-05-19T13:48:34.063Z,92.60
2019-05-19T13:51:02.941Z,93.10
2019-05-19T13:53:31.895Z,92.80
2019-05-19T13:56:00.738Z,91.80
2019-05-19T13:58:29.745Z,91.50
2019-05-19T14:00:58.658Z,91.40
2019-05-19T14:03:27.620Z,92.00
2019-05-19T14:05:56.515Z,92.00
2019-05-19T14:08:25.358Z,92.20
2019-05-19T14:10:54.210Z,91.80
2019-05-19T14:13:23.195Z,91.50
2019-05-19T14:15:52.118Z,91.40
2019-05-19T14:18:21.021Z,91.90
2019-05-19T14:20:49.978Z,91.10
2019-05-19T14:23:18.901Z,90.80
2019-05-19T14:25:47.817Z,90.60
2019-05-19T14:28:16.749Z,90.80
2019-05-19T14:30:45.780Z,90.70
2019-05-19T14:33:14.808Z,91.20
2019-05-19T14:35:43.788Z,91.00
2019-05-19T14:38:12.988Z,90.40
2019-05-19T14:40:41.879Z,90.00
2019-05-19T14:43:10.938Z,89.40
2019-05-19T14:45:42.251Z,88.80
2019-05-19T14:48:11.146Z,87.30
2019-05-19T14:50:40.107Z,87.00
2019-05-19T14:53:09.113Z,88.60
2019-05-19T14:55:38.260Z,89.00
2019-05-19T14:58:07.514Z,88.60
2019-05-19T15:00:36.465Z,86.60
2019-05-19T15:03:05.565Z,88.30
2019-05-19T15:05:34.571Z,86.80
2019-05-19T15:08:03.584Z,87.10
2019-05-19T15:10:32.598Z,88.60
2019-05-19T15:13:01.502Z,88.40
2019-05-19T15:15:30.424Z,87.10
2019-05-19T15:17:59.373Z,87.90
2019-05-19T15:20:28.283Z,87.40
2019-05-19T15:22:57.376Z,87.20
2019-05-19T15:25:26.361Z,86.10
2019-05-19T15:28:00.599Z,87.40
2019-05-19T15:30:25.887Z,87.20
2019-05-19T15:32:55.173Z,87.90
2019-05-19T15:35:24.054Z,87.50
2019-05-19T15:37:52.930Z,87.90
2019-05-19T15:40:22.004Z,87.10
2019-05-19T15:42:50.943Z,85.90
2019-05-19T15:45:19.841Z,84.80
2019-05-19T15:47:48.818Z,83.20
2019-05-19T15:50:17.815Z,81.10
2019-05-19T15:52:46.884Z,80.00
2019-05-19T15:55:15.893Z,79.40
2019-05-19T15:57:44.705Z,80.20
2019-05-19T16:00:14.599Z,81.20
2019-05-19T16:02:43.479Z,79.60
2019-05-19T16:05:12.502Z,79.70
2019-05-19T16:07:41.428Z,78.40
2019-05-19T16:10:11.577Z,77.60
2019-05-19T16:12:40.490Z,80.00
2019-05-19T16:15:10.507Z,79.80
2019-05-19T16:17:39.451Z,78.80
2019-05-19T16:20:08.486Z,78.70
2019-05-19T16:22:37.451Z,79.80
2019-05-19T16:25:06.587Z,80.00
2019-05-19T16:27:35.765Z,80.90
2019-05-19T16:30:05.480Z,78.30
2019-05-19T16:32:34.370Z,78.20
2019-05-19T16:35:03.212Z,78.90
2019-05-19T16:37:32.209Z,79.80
2019-05-19T16:40:01.545Z,79.60
2019-05-19T16:42:30.985Z,80.10
2019-05-19T16:45:00.246Z,81.60
2019-05-19T16:47:29.168Z,80.50
2019-05-19T16:49:58.071Z,78.80
2019-05-19T16:52:27.044Z,77.70
2019-05-19T16:55:13.919Z,76.50
2019-05-19T16:57:42.754Z,78.80
2019-05-19T17:00:11.793Z,80.20
2019-05-19T17:02:40.878Z,80.40
2019-05-19T17:05:09.924Z,79.50
2019-05-19T17:07:38.785Z,77.80
2019-05-19T17:10:08.240Z,77.30
2019-05-19T17:12:37.462Z,75.70
2019-05-19T17:15:06.952Z,75.30
2019-05-19T17:17:35.777Z,75.10
2019-05-19T17:20:05.077Z,75.30
2019-05-19T17:22:34.168Z,77.20
2019-05-19T17:25:03.150Z,75.50
2019-05-19T17:27:32.085Z,75.50
2019-05-19T17:30:00.968Z,77.60
2019-05-19T17:32:29.849Z,78.40
2019-05-19T17:34:58.717Z,79.70
2019-05-19T17:37:27.595Z,79.70
2019-05-19T17:39:56.425Z,80.60
2019-05-19T17:42:28.318Z,81.40
2019-05-19T17:44:57.243Z,81.50
2019-05-19T17:47:26.167Z,81.80
2019-05-19T17:49:55.065Z,84.30
2019-05-19T17:52:24.119Z,83.80
2019-05-19T17:54:53.230Z,84.50
2019-05-19T17:57:22.313Z,85.30
2019-05-19T17:59:51.745Z,87.30
2019-05-19T18:02:20.814Z,87.40
2019-05-19T18:04:49.761Z,88.30
2019-05-19T18:07:18.760Z,89.70
2019-05-19T18:09:47.761Z,88.80
2019-05-19T18:12:16.668Z,90.30
2019-05-19T18:14:45.615Z,90.90
2019-05-19T18:17:14.699Z,90.90
2019-05-19T18:19:43.563Z,91.10
2019-05-19T18:22:12.554Z,91.30
2019-05-19T18:24:41.483Z,91.30
2019-05-19T18:27:10.465Z,91.80
2019-05-19T18:29:39.391Z,92.20
2019-05-19T18:32:08.397Z,92.60
2019-05-19T18:34:37.412Z,93.10
2019-05-19T18:37:06.459Z,93.00
2019-05-19T18:39:35.290Z,93.50
2019-05-19T18:42:04.357Z,93.90
2019-05-19T18:44:33.342Z,94.30
2019-05-19T18:47:02.210Z,94.80
2019-05-19T18:49:31.185Z,95.50
2019-05-19T18:52:00.246Z,95.50
2019-05-19T18:54:29.253Z,95.90
2019-05-19T18:56:58.162Z,96.90
2019-05-19T18:59:27.182Z,97.30
2019-05-19T19:02:00.693Z,97.60
2019-05-19T19:04:29.976Z,97.90
2019-05-19T19:06:58.902Z,98.60
2019-05-19T19:09:27.780Z,99.40
2019-05-19T19:11:56.759Z,99.90
2019-05-19T19:14:27.595Z,99.90
2019-05-19T19:16:56.585Z,99.90
2019-05-19T19:19:25.516Z,99.90
2019-05-19T19:21:54.339Z,99.90
2019-05-19T19:24:23.314Z,99.90
2019-05-19T19:26:52.203Z,99.90
2019-05-19T19:29:21.051Z,99.90
2019-05-19T19:31:49.970Z,99.90
2019-05-19T19:34:18.935Z,99.90
2019-05-19T19:36:47.874Z,99.90
2019-05-19T19:39:16.803Z,99.90
2019-05-19T19:41:45.891Z,99.90
2019-05-19T19:44:14.816Z,99.90
2019-05-19T19:46:43.681Z,99.90
2019-05-19T19:49:13.181Z,99.90
2019-05-19T19:51:42.108Z,99.90
2019-05-19T19:54:11.156Z,99.90
2019-05-19T19:56:40.058Z,99.90
2019-05-19T19:59:09.066Z,99.90
2019-05-19T20:01:38.197Z,99.90
2019-05-19T20:04:07.216Z,99.90
2019-05-19T20:06:36.239Z,99.90
2019-05-19T20:09:07.049Z,99.90
2019-05-19T20:11:36.020Z,99.90
2019-05-19T20:14:05.024Z,99.90
2019-05-19T20:16:33.964Z,99.90
2019-05-19T20:19:02.993Z,99.90
2019-05-19T20:21:32.292Z,99.90
2019-05-19T20:24:01.247Z,99.90
2019-05-19T20:26:30.436Z,99.90
2019-05-19T20:28:59.876Z,99.90
2019-05-19T20:31:31.384Z,99.90
2019-05-19T20:33:59.491Z,99.90
2019-05-19T20:36:28.669Z,99.90
2019-05-19T20:38:57.769Z,99.90
2019-05-19T20:41:26.972Z,99.90
2019-05-19T20:43:56.220Z,99.90
2019-05-19T20:46:25.312Z,99.90
2019-05-19T20:48:54.334Z,99.90
2019-05-19T20:51:23.431Z,99.90
2019-05-19T20:53:56.071Z,99.90
2019-05-19T20:56:24.997Z,99.90
2019-05-19T20:58:54.050Z,99.90
2019-05-19T21:01:23.225Z,99.90
2019-05-19T21:03:52.179Z,99.90
2019-05-19T21:06:21.402Z,99.90
2019-05-19T21:08:50.376Z,99.90
2019-05-19T21:11:19.217Z,99.90
2019-05-19T21:13:48.273Z,99.90
2019-05-19T21:16:17.552Z,99.90
2019-05-19T21:18:46.866Z,99.90
2019-05-19T21:21:15.867Z,99.90
2019-05-19T21:23:44.833Z,99.90
2019-05-19T21:26:13.795Z,99.90
2019-05-19T21:28:42.806Z,99.90
2019-05-19T21:31:11.726Z,99.90
2019-05-19T21:33:40.517Z,99.90
2019-05-19T21:36:09.382Z,99.90
2019-05-19T21:38:38.319Z,99.90
2019-05-19T21:41:07.234Z,99.90
2019-05-19T21:43:36.264Z,99.90
2019-05-19T21:46:06.573Z,99.90
2019-05-19T21:48:35.695Z,99.90
2019-05-19T21:51:04.990Z,99.90
2019-05-19T21:53:34.129Z,99.90
2019-05-19T21:56:03.093Z,99.90
2019-05-19T21:58:32.090Z,99.90
2019-05-19T22:01:01.113Z,99.90
2019-05-19T22:03:30.128Z,99.90
2019-05-19T22:05:59.261Z,99.90
2019-05-19T22:08:28.130Z,99.90
2019-05-19T22:10:57.079Z,99.90
2019-05-19T22:13:26.032Z,99.90
2019-05-19T22:16:10.164Z,99.90
2019-05-19T22:18:25.659Z,99.90
2019-05-19T22:20:54.508Z,99.90
2019-05-19T22:23:23.649Z,99.90
2019-05-19T22:25:52.601Z,99.90
2019-05-19T22:28:21.644Z,99.90
2019-05-19T22:30:50.856Z,99.90
2019-05-19T22:33:19.757Z,99.90
2019-05-19T22:35:48.834Z,99.90
2019-05-19T22:38:17.721Z,99.90
2019-05-19T22:40:46.646Z,99.90
2019-05-19T22:43:15.476Z,99.90
2019-05-19T22:45:44.300Z,99.90
2019-05-19T22:48:13.301Z,99.90
2019-05-19T22:50:42.173Z,99.90
2019-05-19T22:53:11.020Z,99.90
2019-05-19T22:55:39.891Z,99.90
2019-05-19T22:58:08.731Z,99.90
2019-05-19T23:00:37.862Z,99.90
2019-05-19T23:03:06.851Z,99.90
2019-05-19T23:05:35.703Z,99.90
2019-05-19T23:08:04.664Z,99.90
2019-05-19T23:10:33.584Z,99.90
2019-05-19T23:13:02.416Z,99.90
2019-05-19T23:15:31.268Z,99.90
2019-05-19T23:18:00.268Z,99.90
2019-05-19T23:20:29.268Z,99.90
2019-05-19T23:22:58.223Z,99.90
2019-05-19T23:25:27.113Z,99.90
2019-05-19T23:27:55.999Z,99.90
2019-05-19T23:30:24.933Z,99.90
2019-05-19T23:32:53.846Z,99.90
2019-05-19T23:35:22.978Z,99.90
2019-05-19T23:37:51.863Z,99.90
2019-05-19T23:40:20.777Z,99.90
2019-05-19T23:42:49.711Z,99.90
2019-05-19T23:45:18.806Z,99.90
2019-05-19T23:47:47.710Z,99.90
2019-05-19T23:50:16.724Z,99.90
2019-05-19T23:52:45.759Z,99.90
2019-05-19T23:55:14.753Z,99.90
2019-05-19T23:57:43.616Z,99.90
